Time;durP1;ratioP1;P1;durP2;ratioP2;P2;SDS_P1;SDS_P2;PMS_P1;PMS_P2;Temp;Humidity;BMP_temperature;BMP_pressure;BME280_temperature;BME280_humidity;BME280_pressure;Samples;Min_cycle;Max_cycle;Signal;HPM_P1;HPM_P2
2021/07/05 00:00:33;;;;;;;12.05;9.35;;;;;;;16.88;68.55;98064.83;262847;1090;27017;-72
2021/07/05 00:06:27;;;;;;;;;;;;;;;;;;;;;
2021/07/05 00:12:45;;;;;;;10.70;9.60;;;;;;;16.55;69.18;98065.89;262011;1090;22868;-72
2021/07/05 00:18:30;;;;;;;;;;;;;;;16.41;69.79;98076.29;261789;1089;22838;-71
2021/07/05 00:23:34;;;;;;;9.30;7.65;;;;;;;16.25;69.98;98068.14;261924;1090;21460;-71
2021/07/05 00:28:38;;;;;;;10.60;8.45;;;;;;;16.07;70.19;98068.42;261914;1090;22838;-71
2021/07/05 00:33:42;;;;;;;11.00;9.65;;;;;;;15.96;70.98;98061.13;262022;1090;22832;-72
2021/07/05 00:38:45;;;;;;;11.05;9.85;;;;;;;15.93;71.42;98054.48;261993;1090;22799;-72
2021/07/05 00:43:49;;;;;;;10.80;8.40;;;;;;;15.89;71.86;98061.70;262553;1089;23962;-71
2021/07/05 00:48:53;;;;;;;9.25;8.35;;;;;;;15.80;72.18;98063.75;261855;1088;22856;-72
2021/07/05 00:54:08;;;;;;;11.85;10.50;;;;;;;15.71;72.63;98053.03;262523;1090;22775;-70
2021/07/05 00:59:12;;;;;;;12.90;10.60;;;;;;;15.65;72.85;98067.90;262431;1089;25852;-72
2021/07/05 01:04:16;;;;;;;11.50;10.30;;;;;;;15.62;72.92;98063.19;262453;1090;22760;-71
2021/07/05 01:09:19;;;;;;;14.15;10.45;;;;;;;15.62;72.89;98073.98;261918;1090;22974;-72
2021/07/05 01:14:23;;;;;;;11.10;9.40;;;;;;;15.65;73.21;98076.77;261945;1089;24207;-71
2021/07/05 01:19:30;;;;;;;11.40;8.90;;;;;;;15.62;73.22;98077.45;262083;1089;27577;-71
2021/07/05 01:24:35;;;;;;;12.60;10.23;;;;;;;15.62;73.26;98074.76;262057;1090;23039;-72
2021/07/05 01:29:42;;;;;;;12.20;10.90;;;;;;;15.69;73.43;98079.59;262699;1090;22767;-72
2021/07/05 01:34:46;;;;;;;15.40;10.15;;;;;;;15.71;73.46;98082.73;262054;1090;22889;-72
2021/07/05 01:39:49;;;;;;;13.25;11.00;;;;;;;15.68;73.39;98086.11;262115;1090;22803;-70
2021/07/05 01:44:55;;;;;;;14.15;10.35;;;;;;;15.70;73.49;98087.35;261938;1090;22809;-72
2021/07/05 01:49:59;;;;;;;14.00;10.70;;;;;;;15.64;73.43;98083.32;261864;1090;26002;-72
2021/07/05 01:55:11;;;;;;;13.60;10.90;;;;;;;15.59;73.47;98088.16;261927;1090;23423;-71
2021/07/05 02:00:18;;;;;;;15.85;11.25;;;;;;;15.54;73.63;98087.26;261870;1090;27559;-71
2021/07/05 02:05:22;;;;;;;15.95;11.80;;;;;;;15.51;73.46;98077.11;262453;1090;26435;-72
2021/07/05 02:11:39;;;;;;;14.80;10.95;;;;;;;15.50;73.63;98074.76;261910;1089;22757;-71
2021/07/05 02:16:46;;;;;;;13.80;10.45;;;;;;;15.50;73.89;98075.56;261934;1090;22782;-72
2021/07/05 02:21:54;;;;;;;14.00;10.15;;;;;;;15.50;73.67;98078.27;261895;1090;22769;-71
2021/07/05 02:27:05;;;;;;;14.05;10.55;;;;;;;15.40;73.34;98076.00;261140;1090;22711;-72
2021/07/05 02:32:16;;;;;;;15.18;11.53;;;;;;;15.38;73.78;98072.86;262402;1088;22907;-73
2021/07/05 02:37:20;;;;;;;15.30;11.85;;;;;;;15.35;73.81;98070.84;262539;1090;22760;-73
2021/07/05 02:42:24;;;;;;;14.35;10.80;;;;;;;15.37;73.84;98092.87;262817;1089;22798;-72
2021/07/05 02:47:27;;;;;;;13.40;10.35;;;;;;;15.36;73.98;98083.19;262792;1090;22802;-72
2021/07/05 02:52:34;;;;;;;14.33;10.83;;;;;;;15.39;74.08;98087.94;261980;1090;22759;-71
2021/07/05 02:57:38;;;;;;;13.35;10.30;;;;;;;15.38;74.12;98097.14;262444;1090;23209;-72
2021/07/05 03:02:51;;;;;;;15.05;11.30;;;;;;;15.32;74.14;98093.08;262382;1089;22917;-72
2021/07/05 03:08:18;;;;;;;12.20;10.20;;;;;;;15.34;74.46;98085.45;262193;1089;26124;-71
2021/07/05 03:14:19;;;;;;;15.05;11.30;;;;;;;15.37;74.51;98090.16;261859;1089;22781;-71
2021/07/05 03:19:34;;;;;;;13.55;10.55;;;;;;;15.55;74.98;98101.53;261927;1090;22777;-72
2021/07/05 03:24:57;;;;;;;16.10;11.60;;;;;;;15.87;75.39;98116.05;261998;1088;22965;-72
2021/07/05 03:30:01;;;;;;;15.13;11.40;;;;;;;16.29;75.35;98112.27;261903;1090;25864;-72
2021/07/05 03:35:10;;;;;;;17.00;10.70;;;;;;;16.65;73.88;98107.06;262185;1090;22948;-72
2021/07/05 03:40:17;;;;;;;12.60;10.30;;;;;;;16.93;73.05;98110.56;261948;1090;25880;-72
2021/07/05 03:45:27;;;;;;;14.65;10.70;;;;;;;17.20;72.74;98116.27;261968;1090;22801;-72
2021/07/05 03:50:32;;;;;;;13.20;10.35;;;;;;;17.52;71.52;98116.28;261989;1089;22770;-72
2021/07/05 03:55:36;;;;;;;10.85;9.75;;;;;;;17.73;70.95;98112.51;262000;1090;26248;-72
2021/07/05 04:00:40;;;;;;;12.95;9.40;;;;;;;17.89;70.14;98115.17;261885;1090;22793;-71
2021/07/05 04:05:47;;;;;;;14.30;10.45;;;;;;;18.07;69.84;98121.80;262122;1090;22807;-71
2021/07/05 04:10:51;;;;;;;14.67;12.97;;;;;;;18.15;69.47;98130.88;261955;1090;22875;-72
2021/07/05 04:15:57;;;;;;;15.93;12.43;;;;;;;17.95;69.29;98128.13;261865;1090;22870;-72
2021/07/05 04:21:00;;;;;;;12.45;10.80;;;;;;;17.70;69.36;98143.01;261891;1090;22786;-72
2021/07/05 04:26:10;;;;;;;12.23;10.05;;;;;;;17.37;69.46;98139.50;261893;1090;22751;-71
2021/07/05 04:31:14;;;;;;;14.85;10.80;;;;;;;17.22;70.69;98141.08;262101;1090;22774;-72
2021/07/05 04:36:17;;;;;;;11.80;10.35;;;;;;;17.14;70.56;98136.62;261870;1089;22767;-70
2021/07/05 04:41:21;;;;;;;14.20;10.75;;;;;;;17.16;70.83;98128.92;261080;1089;22760;-71
2021/07/05 04:46:35;;;;;;;12.37;10.73;;;;;;;17.29;71.02;98129.63;262062;1088;22756;-72
2021/07/05 04:51:38;;;;;;;12.60;10.75;;;;;;;17.38;70.97;98127.55;261838;1090;22838;-71
2021/07/05 04:56:42;;;;;;;13.05;11.20;;;;;;;17.54;71.12;98129.46;261878;1090;25945;-71
2021/07/05 05:01:46;;;;;;;13.23;11.50;;;;;;;17.71;71.12;98134.53;262431;1090;22804;-72
2021/07/05 05:06:50;;;;;;;11.75;10.55;;;;;;;18.00;71.25;98145.26;262639;1088;22790;-72
2021/07/05 05:11:54;;;;;;;14.40;12.20;;;;;;;18.36;71.23;98144.11;261977;1088;23378;-72
2021/07/05 05:16:58;;;;;;;14.90;12.30;;;;;;;18.63;70.15;98139.63;261855;1090;22988;-72
2021/07/05 05:22:06;;;;;;;11.30;10.20;;;;;;;18.80;69.52;98129.46;261974;1090;25342;-74
2021/07/05 05:27:10;;;;;;;15.75;12.55;;;;;;;18.90;69.37;98134.36;262251;1089;22766;-72
2021/07/05 05:32:13;;;;;;;14.00;11.90;;;;;;;19.01;69.11;98131.05;261979;1089;22767;-70
2021/07/05 05:37:18;;;;;;;14.90;13.30;;;;;;;19.21;68.60;98138.00;263006;1088;22822;-72
2021/07/05 05:42:22;;;;;;;17.63;14.90;;;;;;;19.43;68.92;98136.45;262696;1090;24067;-74
2021/07/05 05:47:28;;;;;;;18.03;16.13;;;;;;;19.62;67.59;98146.44;262708;1088;26092;-73
2021/07/05 05:52:34;;;;;;;17.28;15.48;;;;;;;19.86;67.56;98141.78;263045;1088;22782;-74
2021/07/05 05:58:04;;;;;;;28.77;23.47;;;;;;;20.09;67.13;98133.58;263435;1090;22824;-73
2021/07/05 06:10:36;;;;;;;17.87;15.33;;;;;;;20.53;65.51;98137.63;269475;1089;22612;-73
2021/07/05 06:16:19;;;;;;;16.88;15.18;;;;;;;20.80;65.56;98134.85;262466;1089;22898;-73
2021/07/05 06:21:26;;;;;;;13.90;12.40;;;;;;;21.12;65.23;98142.58;263503;1089;22917;-74
2021/07/05 06:27:05;;;;;;;14.55;12.88;;;;;;;21.36;64.57;98143.96;262940;1090;23211;-74
2021/07/05 06:32:09;;;;;;;12.95;11.68;;;;;;;21.60;64.23;98153.55;263227;1089;22905;-74
2021/07/05 06:37:13;;;;;;;14.68;13.28;;;;;;;21.79;63.77;98149.78;263240;1089;22789;-72
2021/07/05 06:42:17;;;;;;;14.28;12.85;;;;;;;22.00;63.88;98148.38;262222;1089;22813;-73
2021/07/05 06:47:20;;;;;;;13.55;12.18;;;;;;;22.28;64.16;98149.70;262695;1089;26229;-73
2021/07/05 06:52:46;;;;;;;13.50;11.73;;;;;;;22.58;63.02;98143.23;262990;1090;22843;-74
2021/07/05 06:58:26;;;;;;;15.95;11.43;;;;;;;22.76;62.10;98156.95;263077;1090;22931;-71
2021/07/05 07:03:29;;;;;;;13.03;11.73;;;;;;;23.10;62.07;98159.38;262419;1089;22778;-72
2021/07/05 07:08:38;;;;;;;12.55;11.23;;;;;;;23.52;60.82;98158.69;262195;1089;22798;-71
2021/07/05 07:13:42;;;;;;;15.90;13.50;;;;;;;23.86;59.72;98165.70;262217;1090;22866;-71
2021/07/05 07:24:26;;;;;;;14.03;12.05;;;;;;;24.56;57.82;98167.91;262155;1090;25861;-71
2021/07/05 07:29:30;;;;;;;12.25;11.15;;;;;;;24.80;56.58;98168.23;262280;1090;22770;-72
2021/07/05 07:34:37;;;;;;;12.48;10.80;;;;;;;25.23;55.75;98174.25;262483;1090;22897;-72
2021/07/05 07:39:57;;;;;;;12.15;10.85;;;;;;;25.80;55.22;98161.33;262508;1090;22767;-73
2021/07/05 07:45:15;;;;;;;12.65;11.35;;;;;;;25.86;53.04;98162.44;262515;1090;26446;-72
2021/07/05 07:50:39;;;;;;;13.10;11.80;;;;;;;25.89;51.79;98166.33;262582;1089;22862;-71
2021/07/05 07:55:42;;;;;;;12.95;11.00;;;;;;;26.03;52.54;98154.47;262563;1088;22918;-72
2021/07/05 08:00:46;;;;;;;11.65;10.50;;;;;;;26.33;51.48;98159.25;263242;1088;24482;-71
2021/07/05 08:05:50;;;;;;;11.70;10.08;;;;;;;26.49;50.73;98152.41;262418;1090;27689;-74
2021/07/05 08:10:54;;;;;;;12.15;10.95;;;;;;;26.45;50.64;98149.69;262523;1090;23460;-72
2021/07/05 08:15:58;;;;;;;11.65;10.55;;;;;;;26.77;51.23;98145.80;262698;1089;23238;-71
2021/07/05 08:21:03;;;;;;;8.73;7.93;;;;;;;26.79;48.81;98148.90;262714;1090;25913;-72
2021/07/05 08:26:07;;;;;;;8.25;7.45;;;;;;;26.81;48.05;98155.55;263067;1089;22745;-72
2021/07/05 08:31:14;;;;;;;7.25;6.63;;;;;;;27.19;46.41;98159.36;262375;1090;22777;-71
2021/07/05 08:36:20;;;;;;;6.75;6.08;;;;;;;27.74;45.95;98154.58;263045;1090;24316;-72
2021/07/05 08:41:23;;;;;;;6.55;5.93;;;;;;;27.81;44.54;98146.20;262453;1089;22757;-71
2021/07/05 08:46:28;;;;;;;6.85;6.25;;;;;;;27.74;43.48;98155.34;262604;1090;26050;-71
2021/07/05 08:51:32;;;;;;;7.67;6.87;;;;;;;27.86;44.35;98150.46;262660;1090;23210;-71
2021/07/05 08:56:36;;;;;;;8.23;7.45;;;;;;;27.81;43.31;98151.70;262782;1089;22962;-71
2021/07/05 09:01:51;;;;;;;9.93;8.80;;;;;;;27.71;44.95;98150.69;262452;1089;23094;-72
2021/07/05 09:13:58;;;;;;;9.15;8.25;;;;;;;27.59;42.17;98154.03;262612;1090;23008;-71
2021/07/05 09:19:26;;;;;;;8.13;7.43;;;;;;;27.68;42.25;98148.78;262611;1089;22809;-72
2021/07/05 09:24:34;;;;;;;7.88;7.08;;;;;;;27.90;41.80;98159.41;262779;1090;22752;-72
2021/07/05 09:29:44;;;;;;;9.33;8.33;;;;;;;27.95;40.36;98153.42;262586;1090;22835;-73
2021/07/05 09:34:51;;;;;;;8.10;7.40;;;;;;;27.89;41.70;98153.14;262474;1090;24189;-72
2021/07/05 09:40:22;;;;;;;8.73;7.93;;;;;;;28.15;41.76;98157.02;262708;1090;22814;-74
2021/07/05 09:46:19;;;;;;;9.15;8.25;;;;;;;28.18;42.08;98149.90;262819;1090;22857;-76
2021/07/05 09:51:35;;;;;;;9.43;8.63;;;;;;;28.10;41.85;98153.98;262766;1089;24061;-75
2021/07/05 09:56:56;;;;;;;8.85;8.05;;;;;;;28.05;42.43;98159.97;262758;1090;22911;-75
2021/07/05 10:03:35;;;;;;;8.20;7.40;;;;;;;28.00;41.58;98156.50;263440;1089;22783;-75
2021/07/05 10:10:09;;;;;;;;;;;;;;;;;;;;;
2021/07/05 10:16:01;;;;;;;;;;;;;;;28.27;41.61;98154.84;263303;1089;22828;-74
2021/07/05 10:21:35;;;;;;;8.88;7.83;;;;;;;28.65;40.51;98149.78;263148;1089;21441;-75
2021/07/05 10:27:02;;;;;;;8.73;7.83;;;;;;;29.56;41.53;98151.28;262881;1090;22878;-73
2021/07/05 10:32:15;;;;;;;9.00;8.03;;;;;;;30.15;39.59;98154.15;263202;1089;25854;-73
2021/07/05 10:38:08;;;;;;;7.35;6.60;;;;;;;30.14;37.70;98152.62;262621;1090;22751;-72
2021/07/05 10:43:43;;;;;;;7.20;6.50;;;;;;;29.99;37.19;98157.73;262699;1090;22760;-73
2021/07/05 10:48:49;;;;;;;11.45;10.35;;;;;;;29.90;36.64;98150.08;262670;1090;22853;-72
2021/07/05 10:53:57;;;;;;;8.15;7.35;;;;;;;29.36;36.86;98157.67;262477;1090;22912;-70
2021/07/05 10:59:13;;;;;;;9.88;7.80;;;;;;;29.19;37.76;98162.37;262471;1090;22804;-73
2021/07/05 11:04:32;;;;;;;;;;;;;;;29.34;38.27;98153.81;263039;1089;22793;-72
2021/07/05 11:10:13;;;;;;;;;;;;;;;;;;;;;
2021/07/05 11:15:41;;;;;;;8.85;8.05;;;;;;;28.97;37.82;98158.55;262507;1089;22793;-71
2021/07/05 11:20:45;;;;;;;8.70;7.90;;;;;;;28.85;38.54;98148.97;262189;1090;22775;-73
2021/07/05 11:26:18;;;;;;;9.65;8.65;;;;;;;29.24;39.18;98150.09;262822;1089;22786;-73
2021/07/05 11:31:23;;;;;;;10.53;9.05;;;;;;;29.31;38.34;98151.89;262954;1090;22812;-72
2021/07/05 11:36:29;;;;;;;9.45;8.55;;;;;;;29.11;38.32;98163.73;263060;1089;22793;-73
2021/07/05 11:41:46;;;;;;;8.25;7.45;;;;;;;29.07;37.37;98159.52;262750;1090;22795;-73
2021/07/05 11:47:40;;;;;;;7.53;6.35;;;;;;;29.24;36.81;98163.09;262791;1089;22820;-73
2021/07/05 11:52:57;;;;;;;8.00;7.20;;;;;;;29.41;36.32;98158.36;263066;1090;22783;-73
2021/07/05 11:58:06;;;;;;;7.80;7.03;;;;;;;29.81;36.18;98153.41;262380;1089;22793;-73
2021/07/05 12:03:19;;;;;;;10.68;9.53;;;;;;;29.98;35.36;98147.89;262734;1089;24307;-71
2021/07/05 12:08:26;;;;;;;8.63;7.73;;;;;;;30.16;34.96;98145.42;262371;1090;23309;-72
2021/07/05 12:14:01;;;;;;;9.33;8.00;;;;;;;29.92;34.95;98142.13;262530;1090;22844;-72
2021/07/05 12:19:19;;;;;;;10.55;7.73;;;;;;;29.81;35.20;98152.65;262557;1090;22791;-71
2021/07/05 12:24:25;;;;;;;9.63;7.65;;;;;;;29.45;35.36;98156.30;263152;1089;25932;-72
2021/07/05 12:29:33;;;;;;;7.60;6.90;;;;;;;29.17;35.38;98148.25;262629;1090;22776;-73
2021/07/05 12:34:36;;;;;;;8.05;7.00;;;;;;;29.18;36.28;98152.56;263188;1090;22790;-72
2021/07/05 12:39:43;;;;;;;8.75;7.85;;;;;;;29.47;36.79;98151.90;263009;1089;22774;-71
2021/07/05 12:44:47;;;;;;;8.13;7.13;;;;;;;29.34;36.80;98159.33;263249;1089;22778;-72
2021/07/05 12:49:51;;;;;;;7.05;6.45;;;;;;;29.12;37.92;98164.53;263246;1090;22790;-73
2021/07/05 12:55:18;;;;;;;6.88;6.33;;;;;;;28.99;38.26;98156.16;262866;1090;22950;-72
2021/07/05 13:00:25;;;;;;;9.23;7.65;;;;;;;28.92;38.34;98151.57;262486;1090;22774;-72
2021/07/05 13:05:30;;;;;;;7.35;6.75;;;;;;;29.20;38.79;98149.38;262978;1090;22915;-72
2021/07/05 13:10:45;;;;;;;8.30;7.53;;;;;;;29.62;37.91;98152.33;262948;1089;22790;-72
2021/07/05 13:16:00;;;;;;;8.13;7.43;;;;;;;30.06;38.99;98154.02;262448;1090;22840;-73
2021/07/05 13:21:03;;;;;;;6.70;6.10;;;;;;;30.23;36.76;98151.98;262237;1090;22773;-72
2021/07/05 13:26:08;;;;;;;7.10;6.50;;;;;;;30.08;36.76;98154.34;262950;1089;22764;-72
2021/07/05 13:31:29;;;;;;;6.80;6.20;;;;;;;29.99;36.62;98154.98;262889;1089;22880;-72
2021/07/05 13:36:33;;;;;;;6.30;5.60;;;;;;;29.66;36.49;98153.02;262657;1089;22769;-72
2021/07/05 13:41:43;;;;;;;6.88;6.35;;;;;;;29.74;36.85;98148.08;262295;1090;22928;-73
2021/07/05 13:47:17;;;;;;;5.70;5.20;;;;;;;29.80;36.11;98151.88;262487;1090;22938;-72
2021/07/05 13:52:34;;;;;;;6.28;5.78;;;;;;;29.80;35.66;98149.13;262765;1090;22900;-72
2021/07/05 13:57:48;;;;;;;6.45;5.95;;;;;;;29.60;35.92;98148.45;262581;1090;23375;-72
2021/07/05 14:02:53;;;;;;;5.80;5.40;;;;;;;29.39;35.93;98152.52;262788;1090;24323;-72
2021/07/05 14:07:59;;;;;;;6.55;6.05;;;;;;;28.95;37.35;98150.70;267792;1090;25826;-71
2021/07/05 14:13:04;;;;;;;6.20;5.70;;;;;;;28.84;38.01;98152.92;263235;1090;26378;-72
2021/07/05 14:18:08;;;;;;;4.93;4.50;;;;;;;28.77;37.78;98144.81;262483;1090;22793;-72
2021/07/05 14:23:13;;;;;;;5.08;4.68;;;;;;;28.49;36.75;98146.94;261896;1090;22769;-73
2021/07/05 14:28:17;;;;;;;5.45;4.95;;;;;;;28.30;37.62;98153.98;262005;1089;22775;-71
2021/07/05 14:33:22;;;;;;;5.15;4.75;;;;;;;28.27;37.95;98144.59;262051;1089;25977;-72
2021/07/05 14:38:29;;;;;;;5.78;5.38;;;;;;;28.09;38.37;98146.91;263296;1090;22784;-74
2021/07/05 14:43:33;;;;;;;6.00;5.50;;;;;;;27.86;39.01;98147.71;262293;1090;22761;-73
2021/07/05 14:48:36;;;;;;;6.08;5.58;;;;;;;27.74;39.45;98154.58;262573;1090;22914;-73
2021/07/05 14:53:40;;;;;;;5.50;5.10;;;;;;;27.66;39.58;98151.19;261838;1090;22931;-71
2021/07/05 14:58:43;;;;;;;6.85;6.25;;;;;;;27.82;40.08;98151.28;262314;1090;22872;-73
2021/07/05 15:03:47;;;;;;;5.58;5.10;;;;;;;28.02;39.37;98163.56;262704;1090;22790;-72
2021/07/05 15:08:50;;;;;;;5.55;5.05;;;;;;;27.81;40.30;98170.97;262691;1089;24467;-72
2021/07/05 15:13:54;;;;;;;7.80;5.90;;;;;;;27.49;39.96;98175.81;262301;1089;22758;-72
2021/07/05 15:19:14;;;;;;;6.18;5.70;;;;;;;27.19;40.23;98184.88;262706;1089;22766;-71
2021/07/05 15:24:25;;;;;;;5.50;5.10;;;;;;;27.02;40.51;98163.93;262540;1090;22809;-71
2021/07/05 15:29:28;;;;;;;5.53;5.00;;;;;;;26.86;39.88;98172.77;262367;1090;26261;-73
2021/07/05 15:34:32;;;;;;;5.33;4.93;;;;;;;26.76;39.63;98169.73;262314;1090;22921;-72
2021/07/05 15:39:36;;;;;;;4.93;4.35;;;;;;;26.79;39.92;98159.89;262470;1090;25959;-72
2021/07/05 15:44:41;;;;;;;6.08;5.55;;;;;;;26.73;39.05;98154.08;262242;1090;22793;-72
2021/07/05 15:49:45;;;;;;;16.95;15.40;;;;;;;26.68;39.46;98159.22;262747;1090;25861;-73
2021/07/05 15:54:49;;;;;;;5.18;4.70;;;;;;;26.67;39.39;98171.39;261767;1090;25848;-72
2021/07/05 15:59:53;;;;;;;4.83;4.43;;;;;;;26.45;39.45;98183.41;262789;1090;22918;-72
2021/07/05 16:04:56;;;;;;;4.88;4.48;;;;;;;26.22;40.17;98181.33;262684;1090;22886;-72
2021/07/05 16:10:00;;;;;;;5.20;4.80;;;;;;;26.04;40.33;98191.71;262690;1089;22863;-71
2021/07/05 16:15:05;;;;;;;5.78;5.28;;;;;;;25.87;40.79;98193.38;262731;1090;22777;-72
2021/07/05 16:20:11;;;;;;;5.43;4.93;;;;;;;25.73;40.87;98203.30;262537;1088;22816;-72
2021/07/05 16:25:15;;;;;;;4.80;4.33;;;;;;;25.57;41.31;98203.80;262323;1089;22755;-72
2021/07/05 16:30:19;;;;;;;6.15;5.60;;;;;;;25.51;40.90;98201.91;262400;1090;22760;-73
2021/07/05 16:35:22;;;;;;;4.08;3.75;;;;;;;25.42;41.12;98208.63;262047;1090;22857;-72
2021/07/05 16:40:26;;;;;;;4.75;4.30;;;;;;;25.43;41.29;98210.16;262675;1090;24763;-72
2021/07/05 16:45:30;;;;;;;4.85;4.35;;;;;;;25.38;41.78;98213.34;261815;1090;22757;-71
2021/07/05 16:50:35;;;;;;;3.98;3.68;;;;;;;25.30;41.91;98220.02;262660;1089;22941;-72
2021/07/05 16:55:39;;;;;;;4.10;3.80;;;;;;;25.32;41.88;98219.63;262615;1089;22797;-73
2021/07/05 17:00:44;;;;;;;4.15;3.65;;;;;;;25.26;42.58;98224.75;262669;1090;25545;-72
2021/07/05 17:05:48;;;;;;;4.05;3.65;;;;;;;25.24;42.56;98227.13;262372;1090;24367;-71
2021/07/05 17:10:53;;;;;;;3.57;3.27;;;;;;;25.16;42.49;98223.63;262605;1089;22763;-73
2021/07/05 17:16:18;;;;;;;3.85;3.43;;;;;;;25.03;43.36;98217.83;262444;1090;25859;-72
2021/07/05 17:21:22;;;;;;;4.03;3.73;;;;;;;24.94;43.45;98225.69;262653;1089;23522;-72
2021/07/05 17:26:26;;;;;;;4.05;3.75;;;;;;;24.87;44.08;98221.02;262560;1089;22748;-72
2021/07/05 17:31:41;;;;;;;4.15;3.78;;;;;;;24.71;44.03;98234.39;262323;1090;22764;-71
2021/07/05 17:36:54;;;;;;;4.00;3.60;;;;;;;24.57;44.35;98230.48;262621;1089;22790;-72
2021/07/05 17:42:00;;;;;;;4.95;4.30;;;;;;;24.42;44.91;98243.42;262576;1089;23413;-72
2021/07/05 17:47:07;;;;;;;4.33;3.93;;;;;;;24.21;45.33;98240.73;262248;1090;22799;-72
2021/07/05 17:52:16;;;;;;;4.20;3.55;;;;;;;24.12;45.86;98237.60;262848;1088;22858;-72
2021/07/05 17:57:41;;;;;;;4.08;3.70;;;;;;;24.14;46.04;98251.69;262649;1090;24330;-72
2021/07/05 18:08:33;;;;;;;4.50;4.10;;;;;;;24.22;46.74;98248.55;262630;1089;22841;-72
2021/07/05 18:13:43;;;;;;;4.20;3.83;;;;;;;24.23;47.08;98261.06;261836;1090;22761;-73
2021/07/05 18:24:34;;;;;;;5.98;5.48;;;;;;;24.06;47.57;98265.38;262683;1089;22793;-72
2021/07/05 18:29:38;;;;;;;5.20;4.80;;;;;;;23.86;47.95;98273.14;262297;1089;22778;-71
2021/07/05 18:34:47;;;;;;;5.23;4.78;;;;;;;23.67;48.33;98273.50;262335;1089;23677;-73
2021/07/05 18:39:50;;;;;;;5.35;4.85;;;;;;;23.47;48.58;98273.09;262372;1090;22786;-72
2021/07/05 18:44:58;;;;;;;4.85;4.45;;;;;;;23.23;49.18;98278.86;262407;1090;22762;-72
2021/07/05 18:50:13;;;;;;;4.73;4.23;;;;;;;23.04;49.59;98288.14;262359;1089;22763;-72
2021/07/05 18:55:28;;;;;;;5.70;5.20;;;;;;;22.87;50.07;98289.63;262338;1089;22780;-72
2021/07/05 19:00:53;;;;;;;4.83;4.43;;;;;;;22.66;51.12;98290.27;262353;1090;22821;-72
2021/07/05 19:06:23;;;;;;;6.18;5.68;;;;;;;22.48;51.67;98294.84;262809;1089;25827;-73
2021/07/05 19:11:27;;;;;;;8.95;8.05;;;;;;;22.33;52.42;98292.02;262698;1089;28568;-71
2021/07/05 19:16:32;;;;;;;6.33;5.68;;;;;;;22.18;53.34;98310.19;262364;1087;22786;-72
2021/07/05 19:21:38;;;;;;;5.58;5.08;;;;;;;22.10;53.68;98311.28;262803;1089;22946;-73
2021/07/05 19:26:45;;;;;;;6.23;5.58;;;;;;;22.01;53.75;98314.34;262585;1090;24335;-71
2021/07/05 19:31:49;;;;;;;5.90;5.08;;;;;;;21.88;55.10;98318.48;262707;1089;23606;-72
2021/07/05 19:36:53;;;;;;;8.08;5.70;;;;;;;21.76;55.43;98325.00;262482;1089;22796;-72
2021/07/05 19:41:57;;;;;;;5.98;5.33;;;;;;;21.62;56.10;98330.31;262280;1089;22971;-72
2021/07/05 19:47:01;;;;;;;6.58;5.40;;;;;;;21.47;56.60;98334.78;262753;1089;22751;-72
2021/07/05 19:52:05;;;;;;;7.03;6.33;;;;;;;21.33;56.92;98338.89;262366;1090;22787;-72
2021/07/05 19:57:09;;;;;;;9.13;7.55;;;;;;;21.24;57.48;98340.34;262748;1089;22847;-71
2021/07/05 20:02:12;;;;;;;8.77;7.87;;;;;;;21.12;58.33;98350.31;262410;1090;22760;-71
2021/07/05 20:07:17;;;;;;;8.47;7.60;;;;;;;20.98;59.01;98361.80;262431;1090;22910;-72
2021/07/05 20:12:23;;;;;;;7.53;6.67;;;;;;;20.90;59.22;98370.23;262495;1090;23609;-70
2021/07/05 20:17:29;;;;;;;8.30;6.43;;;;;;;20.83;59.64;98363.55;262382;1090;22851;-71
2021/07/05 20:22:33;;;;;;;7.47;6.47;;;;;;;20.82;59.64;98363.91;262458;1090;22770;-68
2021/07/05 20:27:37;;;;;;;7.47;6.73;;;;;;;20.78;60.03;98379.41;262734;1089;22790;-71
2021/07/05 20:32:40;;;;;;;7.23;6.30;;;;;;;20.70;60.58;98377.73;262320;1090;22927;-72
2021/07/05 20:37:44;;;;;;;6.98;6.25;;;;;;;20.56;60.65;98387.20;262374;1088;22840;-72
2021/07/05 20:42:49;;;;;;;7.03;5.47;;;;;;;20.43;61.00;98402.16;262505;1090;22796;-72
2021/07/05 20:47:53;;;;;;;8.05;5.75;;;;;;;20.30;61.18;98396.09;262328;1089;22934;-72
2021/07/05 20:52:58;;;;;;;6.17;5.57;;;;;;;20.24;61.58;98394.83;262728;1090;25960;-72
2021/07/05 20:58:02;;;;;;;7.43;6.00;;;;;;;20.17;62.21;98403.64;262449;1090;22773;-72
2021/07/05 21:03:06;;;;;;;8.27;6.17;;;;;;;20.12;62.29;98402.02;262476;1090;22784;-71
2021/07/05 21:08:10;;;;;;;7.43;5.60;;;;;;;20.06;62.68;98395.28;262234;1089;22885;-72
2021/07/05 21:13:14;;;;;;;6.73;6.03;;;;;;;20.02;62.97;98404.53;262247;1090;22754;-72
2021/07/05 21:18:22;;;;;;;9.13;6.93;;;;;;;19.95;63.11;98403.27;262815;1089;22837;-72
2021/07/05 21:23:27;;;;;;;9.25;6.50;;;;;;;19.89;63.75;98401.97;262500;1090;23081;-71
2021/07/05 21:28:30;;;;;;;6.90;6.07;;;;;;;19.82;63.73;98399.12;262706;1089;22764;-72
2021/07/05 21:33:33;;;;;;;7.33;6.30;;;;;;;19.65;63.97;98397.60;262264;1090;22754;-72
2021/07/05 21:38:37;;;;;;;7.75;6.95;;;;;;;19.51;64.78;98408.19;262417;1090;22835;-71
2021/07/05 21:43:40;;;;;;;7.00;6.30;;;;;;;19.35;65.23;98403.60;262283;1089;23378;-72
2021/07/05 21:48:44;;;;;;;7.60;6.80;;;;;;;19.26;65.40;98411.93;262720;1089;22747;-71
2021/07/05 21:53:55;;;;;;;7.35;6.50;;;;;;;19.22;66.30;98419.21;262692;1090;22838;-73
2021/07/05 21:59:11;;;;;;;7.90;6.95;;;;;;;19.17;65.99;98414.08;262349;1088;22782;-71
2021/07/05 22:04:27;;;;;;;8.60;7.25;;;;;;;19.12;66.47;98406.97;262265;1088;22744;-73
2021/07/05 22:09:51;;;;;;;7.97;7.20;;;;;;;19.08;66.29;98408.84;262382;1090;22905;-73
2021/07/05 22:14:54;;;;;;;9.00;7.40;;;;;;;19.05;67.21;98411.47;262420;1090;22955;-71
2021/07/05 22:19:58;;;;;;;8.90;7.15;;;;;;;19.02;67.08;98414.90;262307;1090;22790;-74
2021/07/05 22:25:04;;;;;;;7.63;6.87;;;;;;;19.02;67.43;98412.19;262439;1090;22882;-71
2021/07/05 22:30:08;;;;;;;8.10;7.05;;;;;;;18.98;67.55;98420.23;262626;1090;25855;-72
2021/07/05 22:35:19;;;;;;;7.55;6.85;;;;;;;18.92;67.79;98417.00;262264;1089;25973;-72
2021/07/05 22:40:42;;;;;;;9.25;6.70;;;;;;;18.85;68.28;98422.24;262626;1089;22854;-72
2021/07/05 22:45:46;;;;;;;7.45;6.75;;;;;;;18.77;68.06;98413.13;262212;1089;22824;-72
2021/07/05 22:50:49;;;;;;;8.40;7.60;;;;;;;18.75;68.39;98422.78;262248;1090;22763;-73
2021/07/05 22:55:53;;;;;;;8.30;7.50;;;;;;;18.66;68.65;98424.88;262312;1090;25976;-73
2021/07/05 23:00:56;;;;;;;8.65;7.75;;;;;;;18.56;68.82;98424.26;262687;1090;22796;-71
2021/07/05 23:06:00;;;;;;;8.50;7.65;;;;;;;18.45;69.22;98428.63;262383;1089;22780;-72
2021/07/05 23:11:16;;;;;;;9.20;8.00;;;;;;;18.32;69.61;98430.64;262466;1088;24560;-71
2021/07/05 23:16:40;;;;;;;9.27;7.80;;;;;;;18.23;69.59;98424.58;262371;1089;22796;-73
2021/07/05 23:21:44;;;;;;;7.80;7.05;;;;;;;18.19;69.90;98429.12;262890;1089;25877;-72
2021/07/05 23:26:48;;;;;;;8.80;7.75;;;;;;;18.07;70.24;98432.69;262631;1090;22924;-71
2021/07/05 23:31:51;;;;;;;9.80;8.80;;;;;;;17.92;70.42;98429.61;262333;1090;26245;-72
2021/07/05 23:36:55;;;;;;;9.73;8.17;;;;;;;17.82;71.01;98435.47;262315;1089;24334;-71
2021/07/05 23:42:11;;;;;;;9.50;8.15;;;;;;;17.75;71.84;98435.27;262405;1089;22838;-71
2021/07/05 23:47:35;;;;;;;10.40;8.45;;;;;;;17.75;71.81;98429.86;262361;1089;22979;-72
2021/07/05 23:52:39;;;;;;;9.20;8.30;;;;;;;17.79;71.82;98431.55;262568;1090;22771;-72
2021/07/05 23:57:43;;;;;;;9.95;8.25;;;;;;;17.82;71.91;98438.18;262395;1090;22793;-72
